Terminal Aerodrome Forecast
Issued by NWS

Home | Current Version | Previous Version | Text Only | Print | Product List | Glossary On
Versions: 1 2 3 4 5 6 7 8 9 10 11 12 13 14 15 16 17 18 19 20 21 22 23
833
FTUS43 KGRR 230546
TAFAZO
TAF
KAZO 230546Z 2306/2406 20012KT P6SM BKN040
     FM230900 22011KT P6SM -SHRA OVC025
     FM231200 23009KT 3SM TSRA BR OVC012CB
     FM231500 26009KT P6SM OVC025
     FM231800 30010KT P6SM BKN035=

USA.gov is the U.S. government's official web portal to all federal, state and local government web resources and services.